sensor_id;sensor_type;location;lat;lon;timestamp;P1;durP1;ratioP1;P2;durP2;ratioP2
47960;SDS011;33721;48.852;9.936;2023-09-07T00:00:12;12.07;;;5.93;;
47960;SDS011;33721;48.852;9.936;2023-09-07T00:02:38;11.48;;;5.65;;
47960;SDS011;33721;48.852;9.936;2023-09-07T00:05:05;11.27;;;6.07;;
47960;SDS011;33721;48.852;9.936;2023-09-07T00:07:31;12.85;;;6.00;;
47960;SDS011;33721;48.852;9.936;2023-09-07T00:09:57;11.93;;;5.57;;
47960;SDS011;33721;48.852;9.936;2023-09-07T00:12:23;10.13;;;5.75;;
47960;SDS011;33721;48.852;9.936;2023-09-07T00:14:48;9.98;;;5.70;;
47960;SDS011;33721;48.852;9.936;2023-09-07T00:17:14;11.68;;;5.80;;
47960;SDS011;33721;48.852;9.936;2023-09-07T00:19:39;12.90;;;5.72;;
47960;SDS011;33721;48.852;9.936;2023-09-07T00:22:05;12.60;;;6.05;;
47960;SDS011;33721;48.852;9.936;2023-09-07T00:24:31;14.27;;;5.53;;
47960;SDS011;33721;48.852;9.936;2023-09-07T00:26:57;12.55;;;6.07;;
47960;SDS011;33721;48.852;9.936;2023-09-07T00:29:23;11.85;;;5.70;;
47960;SDS011;33721;48.852;9.936;2023-09-07T00:31:48;11.38;;;5.70;;
47960;SDS011;33721;48.852;9.936;2023-09-07T00:34:14;11.98;;;5.80;;
47960;SDS011;33721;48.852;9.936;2023-09-07T00:36:40;13.77;;;5.50;;
47960;SDS011;33721;48.852;9.936;2023-09-07T00:39:05;11.35;;;5.88;;
47960;SDS011;33721;48.852;9.936;2023-09-07T00:41:31;13.02;;;5.78;;
47960;SDS011;33721;48.852;9.936;2023-09-07T00:43:57;10.18;;;5.32;;
47960;SDS011;33721;48.852;9.936;2023-09-07T00:46:22;16.63;;;6.32;;
47960;SDS011;33721;48.852;9.936;2023-09-07T00:48:48;14.68;;;5.78;;
47960;SDS011;33721;48.852;9.936;2023-09-07T00:51:14;10.70;;;5.57;;
47960;SDS011;33721;48.852;9.936;2023-09-07T00:53:40;8.80;;;5.68;;
47960;SDS011;33721;48.852;9.936;2023-09-07T00:56:06;15.93;;;5.90;;
47960;SDS011;33721;48.852;9.936;2023-09-07T00:58:32;13.43;;;5.50;;
47960;SDS011;33721;48.852;9.936;2023-09-07T01:00:58;10.77;;;5.03;;
47960;SDS011;33721;48.852;9.936;2023-09-07T01:03:24;12.63;;;5.38;;
47960;SDS011;33721;48.852;9.936;2023-09-07T01:05:51;11.10;;;5.60;;
47960;SDS011;33721;48.852;9.936;2023-09-07T01:08:23;12.40;;;5.40;;
47960;SDS011;33721;48.852;9.936;2023-09-07T01:10:52;12.98;;;5.32;;
47960;SDS011;33721;48.852;9.936;2023-09-07T01:13:18;11.63;;;5.97;;
47960;SDS011;33721;48.852;9.936;2023-09-07T01:15:45;11.82;;;5.93;;
47960;SDS011;33721;48.852;9.936;2023-09-07T01:18:11;11.68;;;5.75;;
47960;SDS011;33721;48.852;9.936;2023-09-07T01:20:37;14.95;;;6.28;;
47960;SDS011;33721;48.852;9.936;2023-09-07T01:23:05;16.58;;;6.20;;
47960;SDS011;33721;48.852;9.936;2023-09-07T01:25:32;9.73;;;6.13;;
47960;SDS011;33721;48.852;9.936;2023-09-07T01:27:59;10.60;;;5.68;;
47960;SDS011;33721;48.852;9.936;2023-09-07T01:30:26;11.93;;;6.07;;
47960;SDS011;33721;48.852;9.936;2023-09-07T01:32:53;11.68;;;5.75;;
47960;SDS011;33721;48.852;9.936;2023-09-07T01:35:19;12.85;;;6.05;;
47960;SDS011;33721;48.852;9.936;2023-09-07T01:37:47;9.48;;;5.60;;
47960;SDS011;33721;48.852;9.936;2023-09-07T01:40:13;15.23;;;6.03;;
47960;SDS011;33721;48.852;9.936;2023-09-07T01:42:38;10.45;;;6.32;;
47960;SDS011;33721;48.852;9.936;2023-09-07T01:45:04;11.25;;;5.95;;
47960;SDS011;33721;48.852;9.936;2023-09-07T01:47:30;10.90;;;5.50;;
47960;SDS011;33721;48.852;9.936;2023-09-07T01:49:56;11.00;;;6.03;;
47960;SDS011;33721;48.852;9.936;2023-09-07T01:52:22;9.02;;;5.25;;
47960;SDS011;33721;48.852;9.936;2023-09-07T01:54:47;10.25;;;5.93;;
47960;SDS011;33721;48.852;9.936;2023-09-07T01:57:13;12.13;;;5.70;;
47960;SDS011;33721;48.852;9.936;2023-09-07T01:59:38;9.70;;;6.03;;
47960;SDS011;33721;48.852;9.936;2023-09-07T02:02:04;11.05;;;6.47;;
47960;SDS011;33721;48.852;9.936;2023-09-07T02:04:30;12.80;;;5.70;;
47960;SDS011;33721;48.852;9.936;2023-09-07T02:06:55;16.25;;;5.68;;
47960;SDS011;33721;48.852;9.936;2023-09-07T02:09:21;10.02;;;5.60;;
47960;SDS011;33721;48.852;9.936;2023-09-07T02:11:47;10.98;;;5.80;;
47960;SDS011;33721;48.852;9.936;2023-09-07T02:14:12;16.35;;;5.55;;
47960;SDS011;33721;48.852;9.936;2023-09-07T02:16:38;11.18;;;6.10;;
47960;SDS011;33721;48.852;9.936;2023-09-07T02:19:04;9.85;;;5.70;;
47960;SDS011;33721;48.852;9.936;2023-09-07T02:21:31;11.48;;;5.53;;
47960;SDS011;33721;48.852;9.936;2023-09-07T02:23:57;13.45;;;5.65;;
47960;SDS011;33721;48.852;9.936;2023-09-07T02:26:23;9.73;;;6.22;;
47960;SDS011;33721;48.852;9.936;2023-09-07T02:28:49;11.73;;;6.93;;
47960;SDS011;33721;48.852;9.936;2023-09-07T02:31:14;9.77;;;5.93;;
47960;SDS011;33721;48.852;9.936;2023-09-07T02:33:40;12.50;;;5.82;;
47960;SDS011;33721;48.852;9.936;2023-09-07T02:36:06;10.95;;;5.78;;
47960;SDS011;33721;48.852;9.936;2023-09-07T02:38:31;12.23;;;6.22;;
47960;SDS011;33721;48.852;9.936;2023-09-07T02:40:57;12.98;;;6.15;;
47960;SDS011;33721;48.852;9.936;2023-09-07T02:43:23;9.43;;;5.82;;
47960;SDS011;33721;48.852;9.936;2023-09-07T02:45:49;13.32;;;6.45;;
47960;SDS011;33721;48.852;9.936;2023-09-07T02:48:15;10.15;;;6.05;;
47960;SDS011;33721;48.852;9.936;2023-09-07T02:50:41;12.13;;;6.63;;
47960;SDS011;33721;48.852;9.936;2023-09-07T02:53:07;11.57;;;6.40;;
47960;SDS011;33721;48.852;9.936;2023-09-07T02:55:33;11.50;;;6.75;;
47960;SDS011;33721;48.852;9.936;2023-09-07T02:58:02;12.40;;;6.03;;
47960;SDS011;33721;48.852;9.936;2023-09-07T03:00:29;11.07;;;6.03;;
47960;SDS011;33721;48.852;9.936;2023-09-07T03:02:55;9.80;;;5.85;;
47960;SDS011;33721;48.852;9.936;2023-09-07T03:05:21;11.82;;;6.05;;
47960;SDS011;33721;48.852;9.936;2023-09-07T03:07:47;10.98;;;6.32;;
47960;SDS011;33721;48.852;9.936;2023-09-07T03:10:13;9.75;;;5.85;;
47960;SDS011;33721;48.852;9.936;2023-09-07T03:12:39;10.15;;;5.78;;
47960;SDS011;33721;48.852;9.936;2023-09-07T03:15:04;8.68;;;5.57;;
47960;SDS011;33721;48.852;9.936;2023-09-07T03:17:31;11.93;;;6.00;;
47960;SDS011;33721;48.852;9.936;2023-09-07T03:19:57;10.15;;;5.70;;
47960;SDS011;33721;48.852;9.936;2023-09-07T03:22:22;11.98;;;6.00;;
47960;SDS011;33721;48.852;9.936;2023-09-07T03:24:51;10.73;;;6.00;;
47960;SDS011;33721;48.852;9.936;2023-09-07T03:27:17;12.43;;;5.88;;
47960;SDS011;33721;48.852;9.936;2023-09-07T03:29:44;12.52;;;5.85;;
47960;SDS011;33721;48.852;9.936;2023-09-07T03:32:09;10.15;;;5.93;;
47960;SDS011;33721;48.852;9.936;2023-09-07T03:34:35;10.30;;;5.82;;
47960;SDS011;33721;48.852;9.936;2023-09-07T03:37:01;14.38;;;6.20;;
47960;SDS011;33721;48.852;9.936;2023-09-07T03:39:27;13.23;;;6.18;;
47960;SDS011;33721;48.852;9.936;2023-09-07T03:41:53;11.18;;;6.20;;
47960;SDS011;33721;48.852;9.936;2023-09-07T03:44:19;10.85;;;5.82;;
47960;SDS011;33721;48.852;9.936;2023-09-07T03:46:44;10.82;;;5.70;;
47960;SDS011;33721;48.852;9.936;2023-09-07T03:49:10;11.95;;;6.30;;
47960;SDS011;33721;48.852;9.936;2023-09-07T03:51:35;12.73;;;5.85;;
47960;SDS011;33721;48.852;9.936;2023-09-07T03:54:01;12.15;;;5.72;;
47960;SDS011;33721;48.852;9.936;2023-09-07T03:56:27;10.25;;;6.00;;
47960;SDS011;33721;48.852;9.936;2023-09-07T03:58:52;11.60;;;5.90;;
47960;SDS011;33721;48.852;9.936;2023-09-07T04:01:18;9.13;;;5.97;;
47960;SDS011;33721;48.852;9.936;2023-09-07T04:03:43;13.27;;;6.07;;
47960;SDS011;33721;48.852;9.936;2023-09-07T04:06:09;8.65;;;5.47;;
47960;SDS011;33721;48.852;9.936;2023-09-07T04:08:35;11.30;;;5.78;;
47960;SDS011;33721;48.852;9.936;2023-09-07T04:11:04;10.55;;;5.60;;
47960;SDS011;33721;48.852;9.936;2023-09-07T04:13:30;11.82;;;6.13;;
47960;SDS011;33721;48.852;9.936;2023-09-07T04:15:56;11.95;;;5.57;;
47960;SDS011;33721;48.852;9.936;2023-09-07T04:18:22;9.65;;;5.70;;
47960;SDS011;33721;48.852;9.936;2023-09-07T04:20:47;9.07;;;5.65;;
47960;SDS011;33721;48.852;9.936;2023-09-07T04:23:13;12.52;;;5.80;;
47960;SDS011;33721;48.852;9.936;2023-09-07T04:25:38;9.75;;;5.50;;
47960;SDS011;33721;48.852;9.936;2023-09-07T04:28:05;11.73;;;5.10;;
47960;SDS011;33721;48.852;9.936;2023-09-07T04:30:31;12.65;;;5.65;;
47960;SDS011;33721;48.852;9.936;2023-09-07T04:32:58;12.02;;;5.57;;
47960;SDS011;33721;48.852;9.936;2023-09-07T04:35:28;8.90;;;5.75;;
47960;SDS011;33721;48.852;9.936;2023-09-07T04:37:55;11.43;;;5.35;;
47960;SDS011;33721;48.852;9.936;2023-09-07T04:40:21;8.70;;;5.40;;
47960;SDS011;33721;48.852;9.936;2023-09-07T04:42:47;9.77;;;6.15;;
47960;SDS011;33721;48.852;9.936;2023-09-07T04:45:13;8.63;;;5.38;;
47960;SDS011;33721;48.852;9.936;2023-09-07T04:47:39;9.68;;;5.50;;
47960;SDS011;33721;48.852;9.936;2023-09-07T04:50:04;10.45;;;5.47;;
47960;SDS011;33721;48.852;9.936;2023-09-07T04:52:31;10.77;;;5.78;;
47960;SDS011;33721;48.852;9.936;2023-09-07T04:54:57;10.45;;;5.45;;
47960;SDS011;33721;48.852;9.936;2023-09-07T04:57:22;10.65;;;5.47;;
47960;SDS011;33721;48.852;9.936;2023-09-07T04:59:48;11.30;;;5.78;;
47960;SDS011;33721;48.852;9.936;2023-09-07T05:02:14;9.93;;;5.45;;
47960;SDS011;33721;48.852;9.936;2023-09-07T05:04:39;10.60;;;5.53;;
47960;SDS011;33721;48.852;9.936;2023-09-07T05:07:05;12.00;;;6.05;;
47960;SDS011;33721;48.852;9.936;2023-09-07T05:09:31;12.57;;;6.13;;
47960;SDS011;33721;48.852;9.936;2023-09-07T05:11:56;8.88;;;5.35;;
47960;SDS011;33721;48.852;9.936;2023-09-07T05:14:25;11.65;;;5.53;;
47960;SDS011;33721;48.852;9.936;2023-09-07T05:16:50;8.07;;;4.97;;
47960;SDS011;33721;48.852;9.936;2023-09-07T05:19:16;15.35;;;6.63;;
47960;SDS011;33721;48.852;9.936;2023-09-07T05:21:42;10.32;;;5.88;;
47960;SDS011;33721;48.852;9.936;2023-09-07T05:24:07;11.15;;;6.03;;
47960;SDS011;33721;48.852;9.936;2023-09-07T05:26:33;12.00;;;6.20;;
47960;SDS011;33721;48.852;9.936;2023-09-07T05:28:59;12.75;;;5.75;;
47960;SDS011;33721;48.852;9.936;2023-09-07T05:31:25;10.45;;;5.72;;
47960;SDS011;33721;48.852;9.936;2023-09-07T05:33:50;11.70;;;5.22;;
47960;SDS011;33721;48.852;9.936;2023-09-07T05:36:19;9.70;;;5.43;;
47960;SDS011;33721;48.852;9.936;2023-09-07T05:38:44;13.75;;;5.68;;
47960;SDS011;33721;48.852;9.936;2023-09-07T05:41:10;11.48;;;5.28;;
47960;SDS011;33721;48.852;9.936;2023-09-07T05:43:35;10.23;;;5.03;;
47960;SDS011;33721;48.852;9.936;2023-09-07T05:46:01;11.32;;;5.40;;
47960;SDS011;33721;48.852;9.936;2023-09-07T05:48:27;10.93;;;5.75;;
47960;SDS011;33721;48.852;9.936;2023-09-07T05:50:53;11.18;;;5.68;;
47960;SDS011;33721;48.852;9.936;2023-09-07T05:53:19;8.35;;;4.80;;
47960;SDS011;33721;48.852;9.936;2023-09-07T05:55:45;9.13;;;5.20;;
47960;SDS011;33721;48.852;9.936;2023-09-07T05:58:12;10.85;;;5.78;;
47960;SDS011;33721;48.852;9.936;2023-09-07T06:00:38;8.45;;;5.22;;
47960;SDS011;33721;48.852;9.936;2023-09-07T06:03:05;11.25;;;5.15;;
47960;SDS011;33721;48.852;9.936;2023-09-07T06:05:31;13.43;;;6.43;;
47960;SDS011;33721;48.852;9.936;2023-09-07T06:07:58;8.18;;;5.43;;
47960;SDS011;33721;48.852;9.936;2023-09-07T06:10:24;9.48;;;5.65;;
47960;SDS011;33721;48.852;9.936;2023-09-07T06:12:50;13.25;;;5.85;;
47960;SDS011;33721;48.852;9.936;2023-09-07T06:15:16;10.43;;;5.88;;
47960;SDS011;33721;48.852;9.936;2023-09-07T06:17:42;11.98;;;5.80;;
47960;SDS011;33721;48.852;9.936;2023-09-07T06:20:08;8.93;;;5.72;;
47960;SDS011;33721;48.852;9.936;2023-09-07T06:22:34;11.50;;;5.97;;
47960;SDS011;33721;48.852;9.936;2023-09-07T06:24:59;10.95;;;6.15;;
47960;SDS011;33721;48.852;9.936;2023-09-07T06:27:25;10.32;;;5.85;;
47960;SDS011;33721;48.852;9.936;2023-09-07T06:29:51;11.57;;;5.97;;
47960;SDS011;33721;48.852;9.936;2023-09-07T06:32:17;10.82;;;5.65;;
47960;SDS011;33721;48.852;9.936;2023-09-07T06:34:43;11.32;;;6.60;;
47960;SDS011;33721;48.852;9.936;2023-09-07T06:37:11;9.88;;;6.00;;
47960;SDS011;33721;48.852;9.936;2023-09-07T06:39:37;12.25;;;7.07;;
47960;SDS011;33721;48.852;9.936;2023-09-07T06:42:02;17.23;;;7.65;;
47960;SDS011;33721;48.852;9.936;2023-09-07T06:44:28;14.32;;;6.80;;
47960;SDS011;33721;48.852;9.936;2023-09-07T06:46:54;15.95;;;7.38;;
47960;SDS011;33721;48.852;9.936;2023-09-07T06:49:21;12.40;;;6.68;;
47960;SDS011;33721;48.852;9.936;2023-09-07T06:51:47;11.95;;;6.53;;
47960;SDS011;33721;48.852;9.936;2023-09-07T06:54:13;9.20;;;6.35;;
47960;SDS011;33721;48.852;9.936;2023-09-07T06:56:38;12.90;;;7.35;;
47960;SDS011;33721;48.852;9.936;2023-09-07T06:59:04;13.20;;;7.18;;
47960;SDS011;33721;48.852;9.936;2023-09-07T07:01:30;11.93;;;8.18;;
47960;SDS011;33721;48.852;9.936;2023-09-07T07:03:55;13.02;;;7.20;;
47960;SDS011;33721;48.852;9.936;2023-09-07T07:06:22;12.15;;;7.63;;
47960;SDS011;33721;48.852;9.936;2023-09-07T07:08:48;13.23;;;7.63;;
47960;SDS011;33721;48.852;9.936;2023-09-07T07:11:13;16.70;;;7.55;;
47960;SDS011;33721;48.852;9.936;2023-09-07T07:13:39;17.48;;;7.82;;
47960;SDS011;33721;48.852;9.936;2023-09-07T07:16:05;11.85;;;7.38;;
47960;SDS011;33721;48.852;9.936;2023-09-07T07:18:31;13.52;;;7.57;;
47960;SDS011;33721;48.852;9.936;2023-09-07T07:20:57;13.38;;;7.15;;
47960;SDS011;33721;48.852;9.936;2023-09-07T07:23:22;12.82;;;7.10;;
47960;SDS011;33721;48.852;9.936;2023-09-07T07:25:48;12.18;;;7.18;;
47960;SDS011;33721;48.852;9.936;2023-09-07T07:28:14;14.57;;;7.22;;
47960;SDS011;33721;48.852;9.936;2023-09-07T07:30:39;10.68;;;7.10;;
47960;SDS011;33721;48.852;9.936;2023-09-07T07:33:05;11.63;;;6.32;;
47960;SDS011;33721;48.852;9.936;2023-09-07T07:35:32;13.15;;;6.80;;
47960;SDS011;33721;48.852;9.936;2023-09-07T07:38:00;11.05;;;6.47;;
47960;SDS011;33721;48.852;9.936;2023-09-07T07:40:26;13.57;;;6.88;;
47960;SDS011;33721;48.852;9.936;2023-09-07T07:42:52;13.45;;;6.63;;
47960;SDS011;33721;48.852;9.936;2023-09-07T07:45:18;13.90;;;7.00;;
47960;SDS011;33721;48.852;9.936;2023-09-07T07:47:45;12.07;;;6.82;;
47960;SDS011;33721;48.852;9.936;2023-09-07T07:50:11;12.13;;;6.70;;
47960;SDS011;33721;48.852;9.936;2023-09-07T07:52:37;14.98;;;6.32;;
47960;SDS011;33721;48.852;9.936;2023-09-07T07:55:02;10.13;;;6.38;;
47960;SDS011;33721;48.852;9.936;2023-09-07T07:57:28;12.35;;;6.90;;
47960;SDS011;33721;48.852;9.936;2023-09-07T07:59:55;16.10;;;6.45;;
47960;SDS011;33721;48.852;9.936;2023-09-07T08:02:21;15.60;;;6.93;;
47960;SDS011;33721;48.852;9.936;2023-09-07T08:04:47;10.48;;;6.00;;
47960;SDS011;33721;48.852;9.936;2023-09-07T08:07:12;10.45;;;6.68;;
47960;SDS011;33721;48.852;9.936;2023-09-07T08:09:38;8.63;;;6.35;;
47960;SDS011;33721;48.852;9.936;2023-09-07T08:12:04;12.77;;;6.50;;
47960;SDS011;33721;48.852;9.936;2023-09-07T08:14:30;10.32;;;6.72;;
47960;SDS011;33721;48.852;9.936;2023-09-07T08:16:56;12.27;;;6.78;;
47960;SDS011;33721;48.852;9.936;2023-09-07T08:19:23;9.90;;;6.50;;
47960;SDS011;33721;48.852;9.936;2023-09-07T08:21:49;13.75;;;6.70;;
47960;SDS011;33721;48.852;9.936;2023-09-07T08:24:15;15.65;;;6.82;;
47960;SDS011;33721;48.852;9.936;2023-09-07T08:26:41;11.40;;;7.53;;
47960;SDS011;33721;48.852;9.936;2023-09-07T08:29:07;10.85;;;6.60;;
47960;SDS011;33721;48.852;9.936;2023-09-07T08:31:37;10.07;;;6.60;;
47960;SDS011;33721;48.852;9.936;2023-09-07T08:34:06;11.27;;;7.15;;
47960;SDS011;33721;48.852;9.936;2023-09-07T08:36:40;9.27;;;6.40;;
47960;SDS011;33721;48.852;9.936;2023-09-07T08:39:06;11.48;;;7.07;;
47960;SDS011;33721;48.852;9.936;2023-09-07T08:41:38;14.20;;;6.22;;
47960;SDS011;33721;48.852;9.936;2023-09-07T08:44:12;10.15;;;6.13;;
47960;SDS011;33721;48.852;9.936;2023-09-07T08:46:40;14.43;;;7.07;;
47960;SDS011;33721;48.852;9.936;2023-09-07T08:49:07;9.73;;;6.50;;
47960;SDS011;33721;48.852;9.936;2023-09-07T08:51:34;10.20;;;6.53;;
47960;SDS011;33721;48.852;9.936;2023-09-07T08:54:02;9.23;;;6.28;;
47960;SDS011;33721;48.852;9.936;2023-09-07T08:56:28;11.13;;;6.60;;
47960;SDS011;33721;48.852;9.936;2023-09-07T08:58:54;11.90;;;7.07;;
47960;SDS011;33721;48.852;9.936;2023-09-07T09:01:20;13.70;;;6.28;;
47960;SDS011;33721;48.852;9.936;2023-09-07T09:03:49;9.07;;;6.68;;
47960;SDS011;33721;48.852;9.936;2023-09-07T09:06:18;17.80;;;7.00;;
47960;SDS011;33721;48.852;9.936;2023-09-07T09:08:52;10.18;;;6.70;;
47960;SDS011;33721;48.852;9.936;2023-09-07T09:11:19;9.75;;;6.78;;
47960;SDS011;33721;48.852;9.936;2023-09-07T09:13:46;16.55;;;6.93;;
47960;SDS011;33721;48.852;9.936;2023-09-07T09:16:12;13.38;;;7.10;;
47960;SDS011;33721;48.852;9.936;2023-09-07T09:18:52;13.48;;;6.95;;
47960;SDS011;33721;48.852;9.936;2023-09-07T09:21:22;9.77;;;6.10;;
47960;SDS011;33721;48.852;9.936;2023-09-07T09:23:49;9.90;;;6.82;;
47960;SDS011;33721;48.852;9.936;2023-09-07T09:26:16;10.48;;;6.45;;
47960;SDS011;33721;48.852;9.936;2023-09-07T09:28:43;9.20;;;6.43;;
47960;SDS011;33721;48.852;9.936;2023-09-07T09:31:12;9.13;;;6.70;;
47960;SDS011;33721;48.852;9.936;2023-09-07T09:33:39;11.13;;;6.85;;
47960;SDS011;33721;48.852;9.936;2023-09-07T09:36:06;10.43;;;6.28;;
47960;SDS011;33721;48.852;9.936;2023-09-07T09:38:33;9.60;;;6.20;;
47960;SDS011;33721;48.852;9.936;2023-09-07T09:41:00;9.27;;;6.38;;
47960;SDS011;33721;48.852;9.936;2023-09-07T09:43:26;10.50;;;6.32;;
47960;SDS011;33721;48.852;9.936;2023-09-07T09:45:52;8.27;;;6.15;;
47960;SDS011;33721;48.852;9.936;2023-09-07T09:48:21;11.88;;;5.97;;
47960;SDS011;33721;48.852;9.936;2023-09-07T09:50:47;13.63;;;6.53;;
47960;SDS011;33721;48.852;9.936;2023-09-07T09:53:18;12.18;;;6.38;;
47960;SDS011;33721;48.852;9.936;2023-09-07T09:55:49;7.45;;;5.80;;
47960;SDS011;33721;48.852;9.936;2023-09-07T09:58:17;8.15;;;5.95;;
47960;SDS011;33721;48.852;9.936;2023-09-07T10:00:43;10.88;;;6.28;;
47960;SDS011;33721;48.852;9.936;2023-09-07T10:03:12;9.35;;;6.60;;
47960;SDS011;33721;48.852;9.936;2023-09-07T10:05:44;10.38;;;6.05;;
47960;SDS011;33721;48.852;9.936;2023-09-07T10:08:13;9.25;;;6.55;;
47960;SDS011;33721;48.852;9.936;2023-09-07T10:10:44;11.45;;;6.95;;
47960;SDS011;33721;48.852;9.936;2023-09-07T10:13:15;11.50;;;6.53;;
47960;SDS011;33721;48.852;9.936;2023-09-07T10:15:42;8.03;;;6.37;;
47960;SDS011;33721;48.852;9.936;2023-09-07T10:18:11;11.30;;;7.43;;
47960;SDS011;33721;48.852;9.936;2023-09-07T10:20:51;10.65;;;6.65;;
47960;SDS011;33721;48.852;9.936;2023-09-07T10:23:20;8.73;;;6.55;;
47960;SDS011;33721;48.852;9.936;2023-09-07T10:25:47;10.50;;;6.43;;
47960;SDS011;33721;48.852;9.936;2023-09-07T10:28:21;11.73;;;6.55;;
47960;SDS011;33721;48.852;9.936;2023-09-07T10:33:38;16.75;;;6.40;;
47960;SDS011;33721;48.852;9.936;2023-09-07T10:36:04;9.63;;;6.47;;
47960;SDS011;33721;48.852;9.936;2023-09-07T10:38:31;8.80;;;6.72;;
47960;SDS011;33721;48.852;9.936;2023-09-07T10:40:58;11.10;;;6.68;;
47960;SDS011;33721;48.852;9.936;2023-09-07T10:43:26;12.93;;;6.55;;
47960;SDS011;33721;48.852;9.936;2023-09-07T10:45:53;10.80;;;6.30;;
47960;SDS011;33721;48.852;9.936;2023-09-07T10:48:19;11.25;;;6.90;;
47960;SDS011;33721;48.852;9.936;2023-09-07T10:50:46;8.77;;;6.88;;
47960;SDS011;33721;48.852;9.936;2023-09-07T10:53:13;8.18;;;6.00;;
47960;SDS011;33721;48.852;9.936;2023-09-07T10:55:40;9.18;;;6.03;;
47960;SDS011;33721;48.852;9.936;2023-09-07T10:58:08;11.23;;;6.50;;
47960;SDS011;33721;48.852;9.936;2023-09-07T11:00:35;9.63;;;7.55;;
47960;SDS011;33721;48.852;9.936;2023-09-07T11:03:08;10.68;;;6.57;;
47960;SDS011;33721;48.852;9.936;2023-09-07T11:05:37;12.85;;;6.95;;
47960;SDS011;33721;48.852;9.936;2023-09-07T11:08:06;8.35;;;6.60;;
47960;SDS011;33721;48.852;9.936;2023-09-07T11:10:33;8.15;;;6.55;;
47960;SDS011;33721;48.852;9.936;2023-09-07T11:13:05;9.75;;;6.43;;
47960;SDS011;33721;48.852;9.936;2023-09-07T11:15:32;9.13;;;6.65;;
47960;SDS011;33721;48.852;9.936;2023-09-07T11:17:58;10.07;;;6.07;;
47960;SDS011;33721;48.852;9.936;2023-09-07T11:20:30;10.70;;;6.28;;
47960;SDS011;33721;48.852;9.936;2023-09-07T11:22:56;11.02;;;5.78;;
47960;SDS011;33721;48.852;9.936;2023-09-07T11:25:22;10.77;;;6.40;;
47960;SDS011;33721;48.852;9.936;2023-09-07T11:27:48;10.93;;;5.72;;
47960;SDS011;33721;48.852;9.936;2023-09-07T11:30:13;11.20;;;6.32;;
47960;SDS011;33721;48.852;9.936;2023-09-07T11:32:39;8.98;;;6.18;;
47960;SDS011;33721;48.852;9.936;2023-09-07T11:35:08;8.82;;;6.25;;
47960;SDS011;33721;48.852;9.936;2023-09-07T11:37:34;11.00;;;6.10;;
47960;SDS011;33721;48.852;9.936;2023-09-07T11:40:00;8.40;;;6.38;;
47960;SDS011;33721;48.852;9.936;2023-09-07T11:42:29;8.02;;;5.38;;
47960;SDS011;33721;48.852;9.936;2023-09-07T11:44:55;8.63;;;6.10;;
47960;SDS011;33721;48.852;9.936;2023-09-07T11:47:20;9.38;;;6.32;;
47960;SDS011;33721;48.852;9.936;2023-09-07T11:49:46;8.68;;;5.95;;
47960;SDS011;33721;48.852;9.936;2023-09-07T11:52:13;8.75;;;6.13;;
47960;SDS011;33721;48.852;9.936;2023-09-07T11:54:39;8.75;;;6.10;;
47960;SDS011;33721;48.852;9.936;2023-09-07T11:57:05;10.25;;;6.60;;
47960;SDS011;33721;48.852;9.936;2023-09-07T11:59:30;7.78;;;5.82;;
47960;SDS011;33721;48.852;9.936;2023-09-07T12:01:57;7.47;;;5.97;;
47960;SDS011;33721;48.852;9.936;2023-09-07T12:04:23;10.77;;;6.30;;
47960;SDS011;33721;48.852;9.936;2023-09-07T12:06:48;9.45;;;6.47;;
47960;SDS011;33721;48.852;9.936;2023-09-07T12:09:14;11.85;;;6.45;;
47960;SDS011;33721;48.852;9.936;2023-09-07T12:11:42;9.73;;;7.18;;
47960;SDS011;33721;48.852;9.936;2023-09-07T12:14:08;10.00;;;6.10;;
47960;SDS011;33721;48.852;9.936;2023-09-07T12:16:34;12.55;;;6.15;;
47960;SDS011;33721;48.852;9.936;2023-09-07T12:19:00;8.52;;;5.65;;
47960;SDS011;33721;48.852;9.936;2023-09-07T12:21:25;9.40;;;5.90;;
47960;SDS011;33721;48.852;9.936;2023-09-07T12:23:51;12.32;;;6.30;;
47960;SDS011;33721;48.852;9.936;2023-09-07T12:26:17;10.02;;;6.00;;
47960;SDS011;33721;48.852;9.936;2023-09-07T12:28:44;7.75;;;6.07;;
47960;SDS011;33721;48.852;9.936;2023-09-07T12:31:10;10.02;;;5.72;;
47960;SDS011;33721;48.852;9.936;2023-09-07T12:33:36;11.38;;;6.28;;
47960;SDS011;33721;48.852;9.936;2023-09-07T12:36:03;9.23;;;5.75;;
47960;SDS011;33721;48.852;9.936;2023-09-07T12:38:30;9.52;;;5.82;;
47960;SDS011;33721;48.852;9.936;2023-09-07T12:40:55;8.70;;;6.00;;
47960;SDS011;33721;48.852;9.936;2023-09-07T12:43:21;9.45;;;5.70;;
47960;SDS011;33721;48.852;9.936;2023-09-07T12:45:47;9.52;;;5.82;;
47960;SDS011;33721;48.852;9.936;2023-09-07T12:48:12;10.55;;;5.85;;
47960;SDS011;33721;48.852;9.936;2023-09-07T12:50:38;8.93;;;5.70;;
47960;SDS011;33721;48.852;9.936;2023-09-07T12:53:05;8.43;;;5.75;;
47960;SDS011;33721;48.852;9.936;2023-09-07T12:55:31;6.70;;;5.18;;
47960;SDS011;33721;48.852;9.936;2023-09-07T12:57:57;10.23;;;5.22;;
47960;SDS011;33721;48.852;9.936;2023-09-07T13:00:24;12.57;;;5.82;;
47960;SDS011;33721;48.852;9.936;2023-09-07T13:02:49;10.73;;;5.40;;
47960;SDS011;33721;48.852;9.936;2023-09-07T13:05:15;10.82;;;5.47;;
47960;SDS011;33721;48.852;9.936;2023-09-07T13:07:41;7.30;;;5.40;;
47960;SDS011;33721;48.852;9.936;2023-09-07T13:10:09;7.97;;;5.32;;
47960;SDS011;33721;48.852;9.936;2023-09-07T13:12:35;9.30;;;5.25;;
47960;SDS011;33721;48.852;9.936;2023-09-07T13:15:01;9.38;;;5.50;;
47960;SDS011;33721;48.852;9.936;2023-09-07T13:17:27;11.20;;;5.55;;
47960;SDS011;33721;48.852;9.936;2023-09-07T13:19:53;9.82;;;5.18;;
47960;SDS011;33721;48.852;9.936;2023-09-07T13:22:19;8.00;;;5.45;;
47960;SDS011;33721;48.852;9.936;2023-09-07T13:24:44;22.00;;;6.30;;
47960;SDS011;33721;48.852;9.936;2023-09-07T13:27:10;16.33;;;5.93;;
47960;SDS011;33721;48.852;9.936;2023-09-07T13:29:36;9.32;;;5.18;;
47960;SDS011;33721;48.852;9.936;2023-09-07T13:32:02;10.05;;;5.40;;
47960;SDS011;33721;48.852;9.936;2023-09-07T13:34:28;10.32;;;5.53;;
47960;SDS011;33721;48.852;9.936;2023-09-07T13:36:54;15.50;;;5.28;;
47960;SDS011;33721;48.852;9.936;2023-09-07T13:39:20;8.60;;;5.28;;
47960;SDS011;33721;48.852;9.936;2023-09-07T13:41:48;11.85;;;5.18;;
47960;SDS011;33721;48.852;9.936;2023-09-07T13:44:14;7.68;;;5.25;;
47960;SDS011;33721;48.852;9.936;2023-09-07T13:46:40;7.32;;;4.95;;
47960;SDS011;33721;48.852;9.936;2023-09-07T13:49:07;8.65;;;5.07;;
47960;SDS011;33721;48.852;9.936;2023-09-07T13:51:32;7.32;;;4.93;;
47960;SDS011;33721;48.852;9.936;2023-09-07T13:54:06;10.30;;;4.60;;
47960;SDS011;33721;48.852;9.936;2023-09-07T13:56:33;9.40;;;5.25;;
47960;SDS011;33721;48.852;9.936;2023-09-07T13:58:59;9.57;;;5.43;;
47960;SDS011;33721;48.852;9.936;2023-09-07T14:01:25;10.93;;;5.32;;
47960;SDS011;33721;48.852;9.936;2023-09-07T14:03:51;6.78;;;4.93;;
47960;SDS011;33721;48.852;9.936;2023-09-07T14:06:17;7.20;;;5.05;;
47960;SDS011;33721;48.852;9.936;2023-09-07T14:08:46;8.93;;;4.97;;
47960;SDS011;33721;48.852;9.936;2023-09-07T14:11:13;7.40;;;5.32;;
47960;SDS011;33721;48.852;9.936;2023-09-07T14:13:39;10.32;;;5.60;;
47960;SDS011;33721;48.852;9.936;2023-09-07T14:16:05;6.90;;;5.25;;
47960;SDS011;33721;48.852;9.936;2023-09-07T14:18:30;9.52;;;5.43;;
47960;SDS011;33721;48.852;9.936;2023-09-07T14:20:56;8.18;;;5.35;;
47960;SDS011;33721;48.852;9.936;2023-09-07T14:23:23;8.65;;;4.70;;
47960;SDS011;33721;48.852;9.936;2023-09-07T14:25:53;6.65;;;4.63;;
47960;SDS011;33721;48.852;9.936;2023-09-07T14:28:19;15.02;;;5.40;;
47960;SDS011;33721;48.852;9.936;2023-09-07T14:30:45;7.07;;;4.90;;
47960;SDS011;33721;48.852;9.936;2023-09-07T14:33:11;7.25;;;5.32;;
47960;SDS011;33721;48.852;9.936;2023-09-07T14:35:37;9.57;;;5.10;;